createdAt,value
2022-09-10T00:00:04.454Z,72576.44
2022-09-10T00:00:43.765Z,72580.44
2022-09-10T00:01:16.435Z,72574.44
2022-09-10T00:01:51.305Z,72574.44
2022-09-10T00:02:23.549Z,72578.44
2022-09-10T00:02:55.791Z,72574.44
2022-09-10T00:03:30.638Z,72578.44
2022-09-10T00:04:03.885Z,72576.44
2022-09-10T00:04:38.725Z,72574.44
2022-09-10T00:05:13.084Z,72574.44
2022-09-10T00:05:46.751Z,72576.44
2022-09-10T00:06:26.258Z,72572.44
2022-09-10T00:06:58.563Z,72574.44
2022-09-10T00:07:32.712Z,72574.44
2022-09-10T00:08:08.212Z,72572.44
2022-09-10T00:08:40.434Z,72568.47
2022-09-10T00:09:13.344Z,72572.44
2022-09-10T00:09:48.622Z,72572.44
2022-09-10T00:10:20.944Z,72574.44
2022-09-10T00:10:53.158Z,72574.44
2022-09-10T00:11:30.566Z,72570.47
2022-09-10T00:12:03.449Z,72570.47
2022-09-10T00:12:36.102Z,72570.47
2022-09-10T00:13:09.434Z,72566.47
2022-09-10T00:13:44.643Z,72566.47
2022-09-10T00:14:19.147Z,72562.47
2022-09-10T00:14:54.489Z,72570.47
2022-09-10T00:15:26.692Z,72562.47
2022-09-10T00:15:59.777Z,72566.47
2022-09-10T00:16:35.256Z,72566.47
2022-09-10T00:17:07.606Z,72562.47
2022-09-10T00:17:39.809Z,72566.47
2022-09-10T00:18:12.656Z,72566.47
2022-09-10T00:18:48.308Z,72564.47
2022-09-10T00:19:21.968Z,72564.47
2022-09-10T00:19:57.670Z,72566.47
2022-09-10T00:20:29.880Z,72566.47
2022-09-10T00:21:05.830Z,72564.47
2022-09-10T00:21:44.438Z,72566.47
2022-09-10T00:22:16.985Z,72566.47
2022-09-10T00:22:50.431Z,72566.47
2022-09-10T00:23:27.532Z,72562.47
2022-09-10T00:24:01.576Z,72558.47
2022-09-10T00:24:34.576Z,72558.47
2022-09-10T00:25:10.861Z,72560.47
2022-09-10T00:25:43.292Z,72558.47
2022-09-10T00:26:19.218Z,72558.47
2022-09-10T00:26:54.558Z,72558.47
2022-09-10T00:27:26.991Z,72558.47
2022-09-10T00:28:00.912Z,72566.47
2022-09-10T00:28:33.137Z,72564.47
2022-09-10T00:29:09.067Z,72562.47
2022-09-10T00:29:41.322Z,72562.47
2022-09-10T00:30:14.232Z,72562.47
2022-09-10T00:30:50.333Z,72558.47
2022-09-10T00:31:24.262Z,72558.47
2022-09-10T00:31:59.229Z,72560.47
2022-09-10T00:32:31.458Z,72562.47
2022-09-10T00:33:03.733Z,72560.47
2022-09-10T00:33:35.990Z,72558.47
2022-09-10T00:34:11.490Z,72562.47
2022-09-10T00:34:43.902Z,72550.50
2022-09-10T00:35:16.329Z,72558.47
2022-09-10T00:35:51.868Z,72554.50
2022-09-10T00:36:26.412Z,72554.50
2022-09-10T00:37:01.552Z,72554.50
2022-09-10T00:37:37.665Z,72552.50
2022-09-10T00:38:10.229Z,72554.50
2022-09-10T00:38:42.608Z,72550.50
2022-09-10T00:39:21.313Z,72552.50
2022-09-10T00:39:53.902Z,72562.47
2022-09-10T00:40:27.206Z,72556.50
2022-09-10T00:41:08.822Z,72554.50
2022-09-10T00:41:43.298Z,72554.50
2022-09-10T00:42:18.741Z,72554.50
2022-09-10T00:42:50.946Z,72554.50
2022-09-10T00:43:23.629Z,72554.50
2022-09-10T00:43:59.823Z,72554.50
2022-09-10T00:44:57.597Z,72554.50
2022-09-10T00:45:31.641Z,72552.50
2022-09-10T00:46:06.604Z,72558.47
2022-09-10T00:46:43.541Z,72554.50
2022-09-10T00:47:18.243Z,72554.50
2022-09-10T00:47:55.296Z,72548.50
2022-09-10T00:48:29.487Z,72552.50
2022-09-10T00:49:04.478Z,72550.50
2022-09-10T00:49:42.102Z,72554.50
2022-09-10T00:50:20.346Z,72554.50
2022-09-10T00:50:52.829Z,72546.50
2022-09-10T00:51:26.460Z,72554.50
2022-09-10T00:52:04.589Z,72548.50
2022-09-10T00:52:39.825Z,72546.50
2022-09-10T00:53:15.690Z,72546.50
2022-09-10T00:53:50.897Z,72554.50
2022-09-10T00:54:25.568Z,72546.50
2022-09-10T00:54:58.168Z,72552.50
2022-09-10T00:55:35.168Z,72546.50
2022-09-10T00:56:07.758Z,72546.50
2022-09-10T00:56:40.302Z,72546.50
2022-09-10T00:57:15.217Z,72552.50
2022-09-10T00:57:54.801Z,72546.50
2022-09-10T00:58:28.196Z,72542.50
2022-09-10T00:59:01.085Z,72546.50
2022-09-10T00:59:36.569Z,72546.50
2022-09-10T01:00:11.958Z,72538.53
2022-09-10T01:00:44.714Z,72546.50
2022-09-10T01:01:20.035Z,72542.50
2022-09-10T01:01:52.581Z,72542.50
2022-09-10T01:02:26.369Z,72546.50
2022-09-10T01:03:01.500Z,72542.50
2022-09-10T01:03:33.745Z,72542.50
2022-09-10T01:04:06.919Z,72546.50
2022-09-10T01:04:42.502Z,72542.50
2022-09-10T01:05:15.997Z,72544.50
2022-09-10T01:05:49.542Z,72546.50
2022-09-10T01:06:24.714Z,72542.50
2022-09-10T01:06:57.410Z,72542.50
2022-09-10T01:07:33.794Z,72542.50
2022-09-10T01:08:08.828Z,72546.50
2022-09-10T01:08:41.038Z,72542.50
2022-09-10T01:09:13.614Z,72544.50
2022-09-10T01:09:48.500Z,72544.50
2022-09-10T01:10:22.673Z,72542.50
2022-09-10T01:11:07.073Z,72546.50
2022-09-10T01:11:52.052Z,72546.50
2022-09-10T01:12:36.540Z,72546.50
2022-09-10T01:13:19.740Z,72548.50
2022-09-10T01:14:05.822Z,72546.50
2022-09-10T01:14:51.690Z,72554.50
2022-09-10T01:15:30.807Z,72546.50
2022-09-10T01:16:13.184Z,72546.50
2022-09-10T01:16:50.353Z,72546.50
2022-09-10T01:17:29.891Z,72546.50
2022-09-10T01:18:16.273Z,72548.50
2022-09-10T01:18:56.713Z,72546.50
2022-09-10T01:19:54.778Z,72542.50
2022-09-10T01:20:50.171Z,72542.50
2022-09-10T01:21:24.564Z,72544.50
2022-09-10T01:22:06.471Z,72542.50
2022-09-10T01:23:07.890Z,72540.53
2022-09-10T01:24:13.866Z,72534.53
2022-09-10T01:24:53.533Z,72536.53
2022-09-10T01:25:34.290Z,72542.50
2022-09-10T01:26:15.170Z,72540.53
2022-09-10T01:27:12.997Z,72540.53
2022-09-10T01:27:51.825Z,72540.53
2022-09-10T01:28:27.869Z,72540.53
2022-09-10T01:29:02.621Z,72534.53
2022-09-10T01:29:44.683Z,72536.53
2022-09-10T01:30:19.730Z,72538.53
2022-09-10T01:30:58.482Z,72540.53
2022-09-10T01:31:38.557Z,72538.53
2022-09-10T01:32:20.680Z,72536.53
2022-09-10T01:33:02.589Z,72538.53
2022-09-10T01:33:45.201Z,72538.53
2022-09-10T01:34:22.378Z,72538.53
2022-09-10T01:34:59.082Z,72538.53
2022-09-10T01:35:39.338Z,72538.53
2022-09-10T01:36:16.261Z,72538.53
2022-09-10T01:36:50.511Z,72538.53
2022-09-10T01:37:28.683Z,72538.53
2022-09-10T01:38:04.783Z,72534.53
2022-09-10T01:38:38.664Z,72538.53
2022-09-10T01:39:15.131Z,72538.53
2022-09-10T01:39:48.221Z,72538.53
2022-09-10T01:40:28.924Z,72538.53
2022-09-10T01:41:08.534Z,72538.53
2022-09-10T01:41:44.631Z,72538.53
2022-09-10T01:42:16.901Z,72536.53
2022-09-10T01:42:54.523Z,72536.53
2022-09-10T01:43:26.918Z,72538.53
2022-09-10T01:44:09.253Z,72536.53
2022-09-10T01:44:47.990Z,72534.53
2022-09-10T01:45:24.558Z,72534.53
2022-09-10T01:46:09.606Z,72534.53
2022-09-10T01:46:50.465Z,72534.53
2022-09-10T01:47:32.900Z,72534.53
2022-09-10T01:48:35.698Z,72532.53
2022-09-10T01:49:26.049Z,72536.53
2022-09-10T01:50:25.888Z,72536.53
2022-09-10T01:51:04.534Z,72532.53
2022-09-10T01:51:49.894Z,72532.53
2022-09-10T01:52:28.680Z,72534.53
2022-09-10T01:53:23.715Z,72530.53
2022-09-10T01:54:11.511Z,72526.53
2022-09-10T01:54:56.557Z,72532.53
2022-09-10T01:55:34.833Z,72532.53
2022-09-10T01:56:19.221Z,72530.53
2022-09-10T01:57:01.458Z,72534.53
2022-09-10T01:57:42.030Z,72534.53
2022-09-10T01:58:21.721Z,72534.53
2022-09-10T01:59:08.931Z,72534.53
2022-09-10T01:59:54.457Z,72534.53
2022-09-10T02:00:27.351Z,72530.53
2022-09-10T02:01:11.104Z,72530.53
2022-09-10T02:01:46.262Z,72536.53
2022-09-10T02:02:22.764Z,72530.53
2022-09-10T02:03:01.293Z,72532.53
2022-09-10T02:03:37.505Z,72530.53
2022-09-10T02:04:10.676Z,72530.53
2022-09-10T02:04:47.627Z,72534.53
2022-09-10T02:05:22.398Z,72526.53
2022-09-10T02:06:00.793Z,72530.53
2022-09-10T02:06:38.361Z,72526.53
2022-09-10T02:07:11.451Z,72528.53
2022-09-10T02:07:44.969Z,72526.53
2022-09-10T02:08:20.689Z,72528.53
2022-09-10T02:08:56.675Z,72526.53
2022-09-10T02:09:30.817Z,72530.53
2022-09-10T02:10:04.795Z,72524.56
2022-09-10T02:10:52.921Z,72530.53
2022-09-10T02:11:27.444Z,72528.53
2022-09-10T02:12:02.406Z,72530.53
2022-09-10T02:12:57.605Z,72526.53
2022-09-10T02:13:55.268Z,72522.56
2022-09-10T02:14:35.584Z,72524.56
2022-09-10T02:15:22.512Z,72526.53
2022-09-10T02:16:18.208Z,72526.53
2022-09-10T02:16:58.840Z,72518.56
2022-09-10T02:17:33.718Z,72522.56
2022-09-10T02:18:06.706Z,72526.53
2022-09-10T02:18:42.614Z,72522.56
2022-09-10T02:19:15.868Z,72522.56
2022-09-10T02:19:51.671Z,72526.53
2022-09-10T02:20:26.911Z,72528.53
2022-09-10T02:21:00.383Z,72530.53
2022-09-10T02:21:32.888Z,72526.53
2022-09-10T02:22:05.274Z,72530.53
2022-09-10T02:22:40.368Z,72526.53
2022-09-10T02:23:13.484Z,72526.53
2022-09-10T02:23:48.970Z,72524.56
2022-09-10T02:24:23.954Z,72530.53
2022-09-10T02:24:56.188Z,72526.53
2022-09-10T02:25:32.009Z,72526.53
2022-09-10T02:26:04.389Z,72530.53
2022-09-10T02:26:42.404Z,72526.53
2022-09-10T02:27:15.083Z,72522.56
2022-09-10T02:27:47.352Z,72518.56
2022-09-10T02:28:22.233Z,72526.53
2022-09-10T02:28:57.890Z,72530.53
2022-09-10T02:29:30.126Z,72530.53
2022-09-10T02:30:04.910Z,72530.53
2022-09-10T02:30:39.744Z,72530.53
2022-09-10T02:31:13.387Z,72530.53
2022-09-10T02:31:45.933Z,72528.53
2022-09-10T02:32:22.041Z,72528.53
2022-09-10T02:32:54.259Z,72530.53
2022-09-10T02:33:26.742Z,72526.53
2022-09-10T02:34:03.324Z,72530.53
2022-09-10T02:34:36.293Z,72530.53
2022-09-10T02:35:09.708Z,72530.53
2022-09-10T02:35:44.704Z,72526.53
2022-09-10T02:36:16.990Z,72528.53
2022-09-10T02:36:49.616Z,72528.53
2022-09-10T02:37:24.461Z,72534.53
2022-09-10T02:37:56.884Z,72526.53
2022-09-10T02:38:30.218Z,72526.53
2022-09-10T02:39:04.066Z,72528.53
2022-09-10T02:39:40.223Z,72530.53
2022-09-10T02:40:14.709Z,72528.53
2022-09-10T02:40:49.140Z,72532.53
2022-09-10T02:41:25.512Z,72528.53
2022-09-10T02:41:59.836Z,72534.53
2022-09-10T02:42:32.551Z,72534.53
2022-09-10T02:43:07.493Z,72532.53
2022-09-10T02:43:39.878Z,72536.53
2022-09-10T02:44:14.685Z,72530.53
2022-09-10T02:44:50.857Z,72538.53
2022-09-10T02:45:23.192Z,72534.53
2022-09-10T02:45:57.213Z,72534.53
2022-09-10T02:46:32.898Z,72534.53
2022-09-10T02:47:06.219Z,72530.53
2022-09-10T02:47:38.479Z,72534.53
2022-09-10T02:48:13.388Z,72532.53
2022-09-10T02:48:46.745Z,72534.53
2022-09-10T02:49:21.043Z,72534.53
2022-09-10T02:49:56.326Z,72532.53
2022-09-10T02:50:28.757Z,72538.53
2022-09-10T02:51:02.792Z,72536.53
2022-09-10T02:51:38.486Z,72538.53
2022-09-10T02:52:12.637Z,72542.50
2022-09-10T02:52:46.230Z,72538.53
2022-09-10T02:53:21.116Z,72538.53
2022-09-10T02:53:57.230Z,72538.53
2022-09-10T02:54:29.491Z,72538.53
2022-09-10T02:55:04.383Z,72538.53
2022-09-10T02:55:36.613Z,72532.53
2022-09-10T02:56:08.943Z,72534.53
2022-09-10T02:56:44.821Z,72534.53
2022-09-10T02:57:17.040Z,72534.53
2022-09-10T02:57:49.342Z,72534.53
2022-09-10T02:58:24.288Z,72530.53
2022-09-10T02:58:56.505Z,72534.53
2022-09-10T02:59:33.930Z,72530.53
2022-09-10T03:00:10.346Z,72530.53
2022-09-10T03:00:43.305Z,72532.53
2022-09-10T03:01:19.359Z,72534.53
2022-09-10T03:02:01.155Z,72526.53
2022-09-10T03:02:33.537Z,72534.53
2022-09-10T03:03:07.538Z,72532.53
2022-09-10T03:03:42.365Z,72528.53
2022-09-10T03:04:15.713Z,72534.53
2022-09-10T03:04:48.002Z,72532.53
2022-09-10T03:05:22.975Z,72528.53
2022-09-10T03:05:56.215Z,72530.53
2022-09-10T03:06:28.430Z,72530.53
2022-09-10T03:07:03.684Z,72526.53
2022-09-10T03:07:35.991Z,72530.53
2022-09-10T03:08:09.268Z,72532.53
2022-09-10T03:08:45.309Z,72526.53
2022-09-10T03:09:17.574Z,72524.56
2022-09-10T03:09:49.945Z,72530.53
2022-09-10T03:10:24.863Z,72530.53
2022-09-10T03:10:59.509Z,72534.53
2022-09-10T03:11:31.761Z,72536.53
2022-09-10T03:12:07.941Z,72534.53
2022-09-10T03:12:40.889Z,72538.53
2022-09-10T03:13:13.093Z,72534.53
2022-09-10T03:13:48.673Z,72538.53
2022-09-10T03:14:23.287Z,72540.53
2022-09-10T03:14:59.153Z,72538.53
2022-09-10T03:15:33.978Z,72538.53
2022-09-10T03:16:07.031Z,72538.53
2022-09-10T03:16:40.406Z,72534.53
2022-09-10T03:17:15.979Z,72538.53
2022-09-10T03:17:48.190Z,72538.53
2022-09-10T03:18:22.870Z,72542.50
2022-09-10T03:18:55.109Z,72546.50
2022-09-10T03:19:29.938Z,72540.53
2022-09-10T03:20:04.590Z,72542.50
2022-09-10T03:20:36.818Z,72542.50
2022-09-10T03:21:13.233Z,72540.53
2022-09-10T03:21:47.703Z,72538.53
2022-09-10T03:22:20.109Z,72538.53
2022-09-10T03:22:54.927Z,72538.53
2022-09-10T03:23:28.289Z,72538.53
2022-09-10T03:24:00.541Z,72540.53
2022-09-10T03:24:38.010Z,72538.53
2022-09-10T03:25:11.828Z,72538.53
2022-09-10T03:25:47.922Z,72542.50
2022-09-10T03:26:26.602Z,72538.53
2022-09-10T03:26:59.687Z,72542.50
2022-09-10T03:27:31.905Z,72538.53
2022-09-10T03:28:07.496Z,72538.53
2022-09-10T03:28:39.868Z,72534.53
2022-09-10T03:29:15.748Z,72534.53
2022-09-10T03:29:51.537Z,72536.53
2022-09-10T03:30:26.809Z,72536.53
2022-09-10T03:30:59.350Z,72534.53
2022-09-10T03:31:32.354Z,72532.53
2022-09-10T03:32:07.474Z,72534.53
2022-09-10T03:32:39.888Z,72530.53
2022-09-10T03:33:13.582Z,72538.53
2022-09-10T03:33:49.324Z,72538.53
2022-09-10T03:34:22.105Z,72538.53
2022-09-10T03:34:54.466Z,72542.50
2022-09-10T03:35:29.340Z,72542.50
2022-09-10T03:36:02.809Z,72542.50
2022-09-10T03:36:37.738Z,72538.53
2022-09-10T03:37:12.122Z,72540.53
2022-09-10T03:37:44.817Z,72540.53
2022-09-10T03:38:20.053Z,72538.53
2022-09-10T03:38:53.002Z,72542.50
2022-09-10T03:39:28.021Z,72542.50
2022-09-10T03:40:00.740Z,72540.53
2022-09-10T03:40:34.230Z,72542.50
2022-09-10T03:41:09.598Z,72540.53
2022-09-10T03:41:41.852Z,72546.50
2022-09-10T03:42:15.739Z,72542.50
2022-09-10T03:42:50.870Z,72546.50
2022-09-10T03:43:23.141Z,72544.50
2022-09-10T03:43:55.596Z,72544.50
2022-09-10T03:44:30.442Z,72542.50
2022-09-10T03:45:03.414Z,72542.50
2022-09-10T03:45:38.914Z,72542.50
2022-09-10T03:46:14.773Z,72544.50
2022-09-10T03:46:51.278Z,72542.50
2022-09-10T03:47:24.137Z,72542.50
2022-09-10T03:47:59.467Z,72542.50
2022-09-10T03:48:32.086Z,72546.50
2022-09-10T03:49:04.541Z,72540.53
2022-09-10T03:49:41.108Z,72540.53
2022-09-10T03:50:13.500Z,72538.53
2022-09-10T03:50:47.118Z,72538.53
2022-09-10T03:51:23.322Z,72538.53
2022-09-10T03:51:56.070Z,72536.53
2022-09-10T03:52:30.142Z,72538.53
2022-09-10T03:53:05.702Z,72538.53
2022-09-10T03:53:38.819Z,72532.53
2022-09-10T03:54:14.101Z,72536.53
2022-09-10T03:54:51.160Z,72534.53
2022-09-10T03:55:23.560Z,72536.53
2022-09-10T03:55:55.833Z,72532.53
2022-09-10T03:56:31.767Z,72538.53
2022-09-10T03:57:04.510Z,72532.53
2022-09-10T03:57:39.046Z,72534.53
2022-09-10T03:58:13.947Z,72536.53
2022-09-10T03:58:46.440Z,72538.53
2022-09-10T03:59:18.832Z,72534.53
2022-09-10T03:59:54.453Z,72538.53
2022-09-10T04:00:27.208Z,72530.53
2022-09-10T04:01:02.378Z,72532.53
2022-09-10T04:01:40.529Z,72532.53
2022-09-10T04:02:12.928Z,72530.53
2022-09-10T04:02:46.597Z,72530.53
2022-09-10T04:03:20.314Z,72534.53
2022-09-10T04:03:57.621Z,72534.53
2022-09-10T04:04:33.058Z,72538.53
2022-09-10T04:05:06.933Z,72538.53
2022-09-10T04:05:43.713Z,72536.53
2022-09-10T04:06:16.439Z,72534.53
2022-09-10T04:06:48.738Z,72538.53
2022-09-10T04:07:24.817Z,72538.53
2022-09-10T04:07:58.828Z,72538.53
2022-09-10T04:08:31.280Z,72540.53
2022-09-10T04:09:06.598Z,72538.53
2022-09-10T04:09:38.805Z,72540.53
2022-09-10T04:10:13.374Z,72542.50
2022-09-10T04:10:46.386Z,72540.53
2022-09-10T04:11:24.005Z,72542.50
2022-09-10T04:11:56.977Z,72542.50
2022-09-10T04:12:29.742Z,72538.53
2022-09-10T04:13:04.604Z,72538.53
2022-09-10T04:13:39.434Z,72542.50
2022-09-10T04:14:14.252Z,72542.50
2022-09-10T04:14:47.973Z,72538.53
2022-09-10T04:15:21.190Z,72542.50
2022-09-10T04:15:56.348Z,72538.53
2022-09-10T04:16:32.581Z,72540.53
2022-09-10T04:17:05.618Z,72534.53
2022-09-10T04:17:40.441Z,72538.53
2022-09-10T04:18:12.690Z,72542.50
2022-09-10T04:18:44.967Z,72542.50
2022-09-10T04:19:23.433Z,72538.53
2022-09-10T04:19:55.818Z,72542.50
2022-09-10T04:20:28.318Z,72542.50
2022-09-10T04:21:10.781Z,72542.50
2022-09-10T04:21:45.425Z,72542.50
2022-09-10T04:22:17.704Z,72542.50
2022-09-10T04:22:53.928Z,72544.50
2022-09-10T04:23:26.198Z,72546.50
2022-09-10T04:24:00.841Z,72546.50
2022-09-10T04:24:36.269Z,72544.50
2022-09-10T04:25:09.660Z,72546.50
2022-09-10T04:25:42.464Z,72544.50
2022-09-10T04:26:16.907Z,72552.50
2022-09-10T04:26:54.156Z,72554.50
2022-09-10T04:27:28.590Z,72552.50
2022-09-10T04:28:01.952Z,72554.50
2022-09-10T04:28:35.429Z,72548.50
2022-09-10T04:29:10.587Z,72554.50
2022-09-10T04:29:43.136Z,72554.50
2022-09-10T04:30:15.445Z,72548.50
2022-09-10T04:30:51.333Z,72554.50
2022-09-10T04:31:23.885Z,72554.50
2022-09-10T04:32:03.967Z,72554.50
2022-09-10T04:32:41.056Z,72556.50
2022-09-10T04:33:15.125Z,72554.50
2022-09-10T04:33:47.802Z,72558.47
2022-09-10T04:34:25.242Z,72558.47
2022-09-10T04:34:59.154Z,72554.50
2022-09-10T04:35:31.389Z,72556.50
2022-09-10T04:36:08.714Z,72552.50
2022-09-10T04:36:44.918Z,72554.50
2022-09-10T04:37:19.559Z,72550.50
2022-09-10T04:37:55.175Z,72554.50
2022-09-10T04:38:27.538Z,72552.50
2022-09-10T04:38:59.997Z,72544.50
2022-09-10T04:39:36.178Z,72550.50
2022-09-10T04:40:10.548Z,72548.50
2022-09-10T04:40:44.690Z,72552.50
2022-09-10T04:41:19.674Z,72558.47
2022-09-10T04:41:52.942Z,72546.50
2022-09-10T04:42:25.854Z,72554.50
2022-09-10T04:43:02.643Z,72548.50
2022-09-10T04:43:35.386Z,72552.50
2022-09-10T04:44:07.860Z,72550.50
2022-09-10T04:44:42.993Z,72550.50
2022-09-10T04:45:15.292Z,72558.47
2022-09-10T04:45:47.565Z,72554.50
2022-09-10T04:46:22.383Z,72554.50
2022-09-10T04:46:56.517Z,72560.47
2022-09-10T04:47:31.588Z,72562.47
2022-09-10T04:48:07.302Z,72558.47
2022-09-10T04:48:41.055Z,72556.50
2022-09-10T04:49:14.750Z,72558.47
2022-09-10T04:49:49.717Z,72558.47
2022-09-10T04:50:22.366Z,72558.47
2022-09-10T04:51:35.693Z,72566.47
2022-09-10T04:52:07.986Z,72556.50
2022-09-10T04:52:40.293Z,72558.47
2022-09-10T04:53:17.474Z,72564.47
2022-09-10T04:53:51.293Z,72562.47
2022-09-10T04:54:25.197Z,72566.47
2022-09-10T04:55:00.617Z,72562.47
2022-09-10T04:55:33.390Z,72562.47
2022-09-10T04:56:06.955Z,72562.47
2022-09-10T04:56:45.021Z,72562.47
2022-09-10T04:57:17.357Z,72566.47
2022-09-10T04:57:49.689Z,72562.47
2022-09-10T04:58:24.593Z,72558.47
2022-09-10T04:58:56.853Z,72564.47
2022-09-10T04:59:29.717Z,72560.47
2022-09-10T05:00:06.389Z,72562.47
2022-09-10T05:00:41.361Z,72562.47
2022-09-10T05:01:14.507Z,72566.47
2022-09-10T05:01:52.259Z,72564.47
2022-09-10T05:02:24.771Z,72568.47
2022-09-10T05:02:59.682Z,72564.47
2022-09-10T05:03:34.509Z,72560.47
2022-09-10T05:04:07.376Z,72558.47
2022-09-10T05:04:42.081Z,72562.47
2022-09-10T05:05:17.484Z,72562.47
2022-09-10T05:05:51.150Z,72562.47
2022-09-10T05:06:23.463Z,72558.47
2022-09-10T05:06:58.794Z,72558.47
2022-09-10T05:07:31.173Z,72562.47
2022-09-10T05:08:05.145Z,72558.47
2022-09-10T05:08:40.165Z,72562.47
2022-09-10T05:09:12.854Z,72562.47
2022-09-10T05:09:45.630Z,72566.47
2022-09-10T05:10:24.521Z,72562.47
2022-09-10T05:10:56.766Z,72566.47
2022-09-10T05:11:29.490Z,72566.47
2022-09-10T05:12:04.666Z,72566.47
2022-09-10T05:12:37.290Z,72564.47
2022-09-10T05:13:09.737Z,72574.44
2022-09-10T05:13:45.689Z,72570.47
2022-09-10T05:14:21.054Z,72570.47
2022-09-10T05:14:53.298Z,72578.44
2022-09-10T05:15:25.589Z,72570.47
2022-09-10T05:16:01.728Z,72574.44
2022-09-10T05:16:36.587Z,72574.44
2022-09-10T05:17:08.865Z,72578.44
2022-09-10T05:17:44.409Z,72576.44
2022-09-10T05:18:19.315Z,72572.44
2022-09-10T05:18:51.561Z,72578.44
2022-09-10T05:19:26.727Z,72576.44
2022-09-10T05:20:07.198Z,72572.44
2022-09-10T05:20:44.726Z,72578.44
2022-09-10T05:21:20.349Z,72574.44
2022-09-10T05:21:52.581Z,72578.44
2022-09-10T05:22:27.341Z,72578.44
2022-09-10T05:23:05.301Z,72576.44
2022-09-10T05:23:39.597Z,72572.44
2022-09-10T05:24:12.038Z,72580.44
2022-09-10T05:24:47.010Z,72578.44
2022-09-10T05:25:19.998Z,72578.44
2022-09-10T05:25:53.888Z,72574.44
2022-09-10T05:26:28.746Z,72574.44
2022-09-10T05:27:03.726Z,72574.44
2022-09-10T05:27:36.453Z,72578.44
2022-09-10T05:28:11.362Z,72578.44
2022-09-10T05:28:43.605Z,72578.44
2022-09-10T05:29:19.543Z,72580.44
2022-09-10T05:29:54.590Z,72580.44
2022-09-10T05:30:33.041Z,72578.44
2022-09-10T05:31:09.752Z,72578.44
2022-09-10T05:31:45.489Z,72578.44
2022-09-10T05:32:19.008Z,72576.44
2022-09-10T05:32:53.366Z,72578.44
2022-09-10T05:33:31.109Z,72574.44
2022-09-10T05:34:04.834Z,72582.44
2022-09-10T05:34:39.872Z,72582.44
2022-09-10T05:35:14.815Z,72580.44
2022-09-10T05:35:51.823Z,72580.44
2022-09-10T05:36:24.661Z,72578.44
2022-09-10T05:36:59.485Z,72580.44
2022-09-10T05:37:31.720Z,72578.44
2022-09-10T05:38:04.246Z,72590.41
2022-09-10T05:38:43.712Z,72582.44
2022-09-10T05:39:16.177Z,72584.44
2022-09-10T05:39:48.675Z,72580.44
2022-09-10T05:40:25.538Z,72586.44
2022-09-10T05:40:58.818Z,72582.44
2022-09-10T05:41:32.098Z,72584.44
2022-09-10T05:42:08.697Z,72588.41
2022-09-10T05:42:43.128Z,72584.44
2022-09-10T05:43:15.694Z,72582.44
2022-09-10T05:43:52.690Z,72586.44
2022-09-10T05:44:26.457Z,72588.41
2022-09-10T05:44:58.838Z,72584.44
2022-09-10T05:45:34.810Z,72584.44
2022-09-10T05:46:07.104Z,72582.44
2022-09-10T05:46:40.631Z,72590.41
2022-09-10T05:47:21.074Z,72592.41
2022-09-10T05:47:53.357Z,72590.41
2022-09-10T05:48:31.487Z,72590.41
2022-09-10T05:49:06.417Z,72588.41
2022-09-10T05:49:38.651Z,72586.44
2022-09-10T05:50:11.456Z,72586.44
2022-09-10T05:50:47.207Z,72590.41
2022-09-10T05:51:19.833Z,72590.41
2022-09-10T05:51:54.006Z,72590.41
2022-09-10T05:52:29.425Z,72586.44
2022-09-10T05:53:04.848Z,72586.44
2022-09-10T05:53:38.317Z,72590.41
2022-09-10T05:54:14.465Z,72588.41
2022-09-10T05:54:46.787Z,72586.44
2022-09-10T05:55:19.049Z,72586.44
2022-09-10T05:55:52.613Z,72590.41
2022-09-10T05:56:28.246Z,72594.41
2022-09-10T05:57:01.342Z,72584.44
2022-09-10T05:57:34.376Z,72582.44
2022-09-10T05:58:09.352Z,72586.44
2022-09-10T05:58:45.191Z,72590.41
2022-09-10T05:59:21.847Z,72588.41
2022-09-10T05:59:57.013Z,72588.41
2022-09-10T06:00:30.024Z,72586.44
2022-09-10T06:01:08.127Z,72594.41
2022-09-10T06:01:40.508Z,72588.41
2022-09-10T06:02:18.643Z,72592.41
2022-09-10T06:02:57.361Z,72586.44
2022-09-10T06:03:52.589Z,72588.41
2022-09-10T06:04:25.297Z,72596.41
2022-09-10T06:05:00.792Z,72594.41
2022-09-10T06:05:33.041Z,72590.41
2022-09-10T06:06:07.977Z,72590.41
2022-09-10T06:06:45.729Z,72594.41
2022-09-10T06:07:18.989Z,72592.41
2022-09-10T06:07:51.401Z,72594.41
2022-09-10T06:08:26.383Z,72594.41
2022-09-10T06:08:59.645Z,72594.41
2022-09-10T06:09:43.973Z,72594.41
2022-09-10T06:10:32.841Z,72596.41
2022-09-10T06:11:06.405Z,72598.41
2022-09-10T06:11:46.677Z,72596.41
2022-09-10T06:12:19.791Z,72596.41
2022-09-10T06:12:52.274Z,72594.41
2022-09-10T06:13:28.053Z,72598.41
2022-09-10T06:14:01.344Z,72598.41
2022-09-10T06:14:34.397Z,72594.41
2022-09-10T06:15:10.793Z,72590.41
2022-09-10T06:15:43.333Z,72590.41
2022-09-10T06:16:16.380Z,72594.41
2022-09-10T06:16:53.654Z,72598.41
2022-09-10T06:17:26.565Z,72592.41
2022-09-10T06:17:59.381Z,72598.41
2022-09-10T06:18:34.847Z,72590.41
2022-09-10T06:19:11.259Z,72594.41
2022-09-10T06:19:44.681Z,72598.41
2022-09-10T06:20:20.542Z,72598.41
2022-09-10T06:21:02.074Z,72600.41
2022-09-10T06:21:37.419Z,72598.41
2022-09-10T06:22:11.182Z,72598.41
2022-09-10T06:22:45.810Z,72596.41
2022-09-10T06:23:21.169Z,72598.41
2022-09-10T06:23:54.913Z,72598.41
2022-09-10T06:24:31.325Z,72598.41
2022-09-10T06:25:03.637Z,72598.41
2022-09-10T06:25:35.882Z,72594.41
2022-09-10T06:26:13.286Z,72598.41
2022-09-10T06:26:45.569Z,72594.41
2022-09-10T06:27:18.983Z,72598.41
2022-09-10T06:27:54.085Z,72600.41
2022-09-10T06:28:26.297Z,72598.41
2022-09-10T06:28:58.524Z,72598.41
2022-09-10T06:29:33.366Z,72598.41
2022-09-10T06:30:06.616Z,72594.41
2022-09-10T06:30:40.102Z,72598.41
2022-09-10T06:31:17.843Z,72600.41
2022-09-10T06:31:50.101Z,72598.41
2022-09-10T06:32:25.804Z,72602.38
2022-09-10T06:32:58.204Z,72602.38
2022-09-10T06:33:31.694Z,72602.38
2022-09-10T06:34:06.802Z,72598.41
2022-09-10T06:34:41.622Z,72600.41
2022-09-10T06:35:14.141Z,72600.41
2022-09-10T06:35:55.406Z,72602.38
2022-09-10T06:36:28.900Z,72602.38
2022-09-10T06:37:04.279Z,72598.41
2022-09-10T06:37:37.458Z,72604.38
2022-09-10T06:38:13.341Z,72598.41
2022-09-10T06:38:49.649Z,72598.41
2022-09-10T06:39:22.177Z,72598.41
2022-09-10T06:39:57.413Z,72592.41
2022-09-10T06:40:33.106Z,72602.38
2022-09-10T06:41:07.792Z,72598.41
2022-09-10T06:41:49.059Z,72596.41
2022-09-10T06:42:43.739Z,72594.41
2022-09-10T06:43:18.744Z,72598.41
2022-09-10T06:44:06.995Z,72594.41
2022-09-10T06:44:45.989Z,72602.38
2022-09-10T06:45:47.305Z,72594.41
2022-09-10T06:47:42.741Z,72598.41
2022-09-10T06:48:47.605Z,72594.41
2022-09-10T06:49:24.902Z,72598.41
2022-09-10T06:50:00.392Z,72598.41
2022-09-10T06:50:33.342Z,72598.41
2022-09-10T06:51:08.986Z,72598.41
2022-09-10T06:51:43.126Z,72598.41
2022-09-10T06:52:16.305Z,72602.38
2022-09-10T06:52:55.162Z,72602.38
2022-09-10T06:53:29.838Z,72602.38
2022-09-10T06:54:03.012Z,72600.41
2022-09-10T06:54:38.153Z,72604.38
2022-09-10T06:55:24.766Z,72602.38
2022-09-10T06:55:57.142Z,72606.38
2022-09-10T06:56:32.805Z,72604.38
2022-09-10T06:57:06.161Z,72604.38
2022-09-10T06:57:38.429Z,72610.38
2022-09-10T06:58:10.649Z,72604.38
2022-09-10T06:58:46.660Z,72610.38
2022-09-10T06:59:20.145Z,72610.38
2022-09-10T06:59:54.887Z,72606.38